createdAt,value
2023-06-19T00:02:45.342Z,34.06
2023-06-19T00:05:48.894Z,36.37
2023-06-19T00:08:53.037Z,36.93
2023-06-19T00:11:56.561Z,36.84
2023-06-19T00:15:00.195Z,35.26
2023-06-19T00:18:03.915Z,34.13
2023-06-19T00:21:09.163Z,33.72
2023-06-19T00:24:13.112Z,33.22
2023-06-19T00:27:16.609Z,32.60
2023-06-19T00:30:20.197Z,31.94
2023-06-19T00:33:23.729Z,31.41
2023-06-19T00:36:29.515Z,32.78
2023-06-19T00:39:33.413Z,32.01
2023-06-19T00:42:36.975Z,30.26
2023-06-19T00:45:40.727Z,30.73
2023-06-19T00:48:47.147Z,31.56
2023-06-19T00:51:50.776Z,33.61
2023-06-19T00:54:55.480Z,35.41
2023-06-19T00:57:59.392Z,37.17
2023-06-19T01:01:09.604Z,38.18
2023-06-19T01:04:14.686Z,39.45
2023-06-19T01:07:36.216Z,40.23
2023-06-19T01:10:43.935Z,40.49
2023-06-19T01:13:53.597Z,39.86
2023-06-19T01:16:57.402Z,39.66
2023-06-19T01:20:08.666Z,40.31
2023-06-19T01:23:13.375Z,42.14
2023-06-19T01:26:20.166Z,43.07
2023-06-19T01:29:23.951Z,43.00
2023-06-19T01:32:57.496Z,44.16
2023-06-19T01:36:05.301Z,43.56
2023-06-19T01:39:10.244Z,44.20
2023-06-19T01:42:15.279Z,44.23
2023-06-19T01:45:18.880Z,43.82
2023-06-19T01:48:22.789Z,43.20
2023-06-19T01:51:26.317Z,44.23
2023-06-19T01:54:29.907Z,43.03
2023-06-19T01:57:35.751Z,42.79
2023-06-19T02:00:40.234Z,42.23
2023-06-19T02:03:43.911Z,41.92
2023-06-19T02:06:47.762Z,41.38
2023-06-19T02:09:52.232Z,41.92
2023-06-19T02:12:55.798Z,42.64
2023-06-19T02:16:00.530Z,42.11
2023-06-19T02:19:05.288Z,41.16
2023-06-19T02:22:09.221Z,41.05
2023-06-19T02:25:12.795Z,40.49
2023-06-19T02:28:20.559Z,40.61
2023-06-19T02:31:27.186Z,39.49
2023-06-19T02:34:30.908Z,38.61
2023-06-19T02:37:35.241Z,37.89
2023-06-19T02:40:45.037Z,38.32
2023-06-19T02:44:12.872Z,38.43
2023-06-19T02:47:29.539Z,36.79
2023-06-19T02:51:11.130Z,36.94
2023-06-19T02:54:26.184Z,36.96
2023-06-19T02:57:59.087Z,37.25
2023-06-19T03:01:41.840Z,37.68
2023-06-19T03:04:46.152Z,38.46
2023-06-19T03:07:49.639Z,38.36
2023-06-19T03:10:53.257Z,38.15
2023-06-19T03:13:58.941Z,37.79
2023-06-19T03:17:05.861Z,36.99
2023-06-19T03:20:13.790Z,36.96
2023-06-19T03:23:24.274Z,37.40
2023-06-19T03:26:28.053Z,37.04
2023-06-19T03:29:36.582Z,37.26
2023-06-19T03:32:43.698Z,37.28
2023-06-19T03:35:59.361Z,36.47
2023-06-19T03:39:14.372Z,37.20
2023-06-19T03:42:19.584Z,37.00
2023-06-19T03:45:23.992Z,37.04
2023-06-19T03:48:27.824Z,37.34
2023-06-19T03:51:32.271Z,37.47
2023-06-19T03:54:35.861Z,37.32
2023-06-19T04:01:38.454Z,38.42
2023-06-19T04:04:42.123Z,38.44
2023-06-19T04:07:52.035Z,37.78
2023-06-19T04:10:55.757Z,38.17
2023-06-19T04:14:02.003Z,37.87
2023-06-19T04:17:07.217Z,37.85
2023-06-19T04:20:26.235Z,36.73
2023-06-19T04:23:32.862Z,38.77
2023-06-19T04:26:38.922Z,38.01
2023-06-19T04:29:48.815Z,37.66
2023-06-19T04:33:07.255Z,37.91
2023-06-19T04:36:13.777Z,37.99
2023-06-19T04:39:20.706Z,37.19
2023-06-19T04:42:26.574Z,36.81
2023-06-19T04:45:41.709Z,37.22
2023-06-19T04:48:54.257Z,37.04
2023-06-19T04:52:05.790Z,37.09
2023-06-19T04:55:22.973Z,37.46
2023-06-19T05:02:09.379Z,37.14
2023-06-19T05:05:21.572Z,37.09
2023-06-19T05:08:42.449Z,37.48
2023-06-19T05:11:59.204Z,37.55
2023-06-19T05:15:03.358Z,36.85
2023-06-19T05:18:09.910Z,35.92
2023-06-19T05:21:43.436Z,35.27
2023-06-19T05:24:49.889Z,35.25
2023-06-19T05:32:31.604Z,35.83
2023-06-19T05:36:13.169Z,36.32
2023-06-19T05:39:23.835Z,37.41
2023-06-19T05:43:16.708Z,36.16
2023-06-19T05:48:07.115Z,35.82
2023-06-19T05:55:45.152Z,35.58
2023-06-19T05:59:09.729Z,34.63
2023-06-19T06:02:43.731Z,35.10
2023-06-19T06:05:50.960Z,35.08
2023-06-19T06:08:55.362Z,34.99
2023-06-19T06:11:58.833Z,35.71
2023-06-19T06:18:58.350Z,34.79
2023-06-19T06:22:08.310Z,34.26
2023-06-19T06:25:13.663Z,34.29
2023-06-19T06:28:17.666Z,33.89
2023-06-19T06:32:08.012Z,33.17
2023-06-19T06:35:11.816Z,32.83
2023-06-19T06:38:19.174Z,32.31
2023-06-19T06:41:30.530Z,32.30
2023-06-19T06:44:46.531Z,32.79
2023-06-19T06:47:51.730Z,32.79
2023-06-19T06:51:08.684Z,32.18
2023-06-19T06:54:36.728Z,32.04
2023-06-19T06:57:40.938Z,32.36
2023-06-19T07:01:07.479Z,32.80
2023-06-19T07:04:11.537Z,31.96
2023-06-19T07:07:36.268Z,31.46
2023-06-19T07:11:00.297Z,33.87
2023-06-19T07:14:23.861Z,34.77
2023-06-19T07:17:36.376Z,35.41
2023-06-19T07:20:49.376Z,34.83
2023-06-19T07:27:13.237Z,32.31
2023-06-19T07:30:43.204Z,31.07
2023-06-19T07:34:07.043Z,29.57
2023-06-19T07:37:19.235Z,29.37
2023-06-19T07:40:23.125Z,29.43
2023-06-19T07:43:50.072Z,29.73
2023-06-19T07:47:06.223Z,29.61
2023-06-19T07:50:20.262Z,30.20
2023-06-19T07:53:49.797Z,31.14
2023-06-19T08:06:44.890Z,32.37
2023-06-19T08:10:07.823Z,32.65
2023-06-19T08:13:28.835Z,31.57
2023-06-19T08:16:32.431Z,32.03
2023-06-19T08:19:36.493Z,32.07
2023-06-19T08:22:52.212Z,32.76
2023-06-19T08:25:58.683Z,32.86
2023-06-19T08:29:12.523Z,32.25
2023-06-19T08:32:20.138Z,32.06
2023-06-19T08:35:26.591Z,32.12
2023-06-19T08:38:30.100Z,32.37
2023-06-19T08:41:33.803Z,32.31
2023-06-19T08:44:40.592Z,31.86
2023-06-19T08:47:48.942Z,31.71
2023-06-19T08:51:06.320Z,32.34
2023-06-19T08:54:29.556Z,31.63
2023-06-19T08:57:40.697Z,32.11
2023-06-19T09:00:49.805Z,30.90
2023-06-19T09:03:56.342Z,30.99
2023-06-19T09:07:03.177Z,31.50
2023-06-19T09:10:20.626Z,31.34
2023-06-19T09:13:53.022Z,32.08
2023-06-19T09:16:58.285Z,32.56
2023-06-19T09:20:07.438Z,32.17
2023-06-19T09:23:20.300Z,32.54
2023-06-19T09:26:27.273Z,31.73
2023-06-19T09:29:32.857Z,31.88
2023-06-19T09:32:39.301Z,32.18
2023-06-19T09:35:44.707Z,32.32
2023-06-19T09:38:50.437Z,31.78
2023-06-19T09:42:02.320Z,31.85
2023-06-19T09:45:19.718Z,31.03
2023-06-19T09:48:32.458Z,31.21
2023-06-19T09:52:12.175Z,31.79
2023-06-19T09:55:19.024Z,32.44
2023-06-19T09:58:25.841Z,32.06
2023-06-19T10:01:36.126Z,31.64
2023-06-19T10:05:00.355Z,31.82
2023-06-19T10:08:06.690Z,32.15
2023-06-19T10:11:10.388Z,31.53
2023-06-19T10:14:14.681Z,32.50
2023-06-19T10:17:31.725Z,32.65
2023-06-19T10:21:18.004Z,32.44
2023-06-19T10:28:02.233Z,30.78
2023-06-19T10:31:22.590Z,29.79
2023-06-19T10:34:58.554Z,30.69
2023-06-19T10:38:51.341Z,30.45
2023-06-19T10:42:29.890Z,30.81
2023-06-19T10:45:34.816Z,30.87
2023-06-19T10:48:39.621Z,30.65
2023-06-19T10:52:18.752Z,30.64
2023-06-19T10:55:41.459Z,30.99
2023-06-19T10:58:45.133Z,31.08
2023-06-19T11:01:56.420Z,30.64
2023-06-19T11:05:00.070Z,30.36
2023-06-19T11:08:05.224Z,30.36
2023-06-19T11:11:09.353Z,30.50
2023-06-19T11:14:18.123Z,30.55
2023-06-19T11:17:31.055Z,30.04
2023-06-19T11:20:50.216Z,30.53
2023-06-19T11:23:53.783Z,30.60
2023-06-19T11:27:00.991Z,30.29
2023-06-19T11:30:06.837Z,30.86
2023-06-19T11:33:26.390Z,31.05
2023-06-19T11:36:31.544Z,30.43
2023-06-19T11:39:41.663Z,30.85
2023-06-19T11:43:02.191Z,31.12
2023-06-19T11:47:21.078Z,31.32
2023-06-19T11:50:35.121Z,31.84
2023-06-19T11:54:03.681Z,32.34
2023-06-19T11:57:37.837Z,32.48
2023-06-19T12:00:51.046Z,31.63
2023-06-19T12:03:58.546Z,31.99
2023-06-19T12:07:08.261Z,32.13
2023-06-19T12:10:30.208Z,32.54
2023-06-19T12:13:34.303Z,32.62
2023-06-19T12:16:41.277Z,33.20
2023-06-19T12:20:15.518Z,33.39
2023-06-19T12:23:25.194Z,33.95
2023-06-19T12:27:01.760Z,34.20
2023-06-19T12:30:01.803Z,34.56
2023-06-19T12:33:49.366Z,34.95
2023-06-19T12:37:13.037Z,35.13
2023-06-19T12:44:03.721Z,35.61
2023-06-19T12:47:34.851Z,35.96
2023-06-19T12:50:52.278Z,36.26
2023-06-19T12:54:24.792Z,36.39
2023-06-19T12:57:33.123Z,36.55
2023-06-19T13:00:59.189Z,37.10
2023-06-19T13:04:05.013Z,37.48
2023-06-19T13:07:21.525Z,37.48
2023-06-19T13:10:25.833Z,37.84
2023-06-19T13:13:38.773Z,38.06
2023-06-19T14:11:16.050Z,42.11
2023-06-19T16:25:53.615Z,48.66
2023-06-19T16:30:15.272Z,50.91
2023-06-19T16:51:50.066Z,52.62
2023-06-19T17:41:07.377Z,54.63
2023-06-19T17:46:37.216Z,55.26
2023-06-19T18:12:17.246Z,56.12
2023-06-19T18:12:30.644Z,56.09
2023-06-19T18:25:13.686Z,56.61
2023-06-19T19:11:53.539Z,56.59
2023-06-19T19:15:53.112Z,57.21
2023-06-19T19:20:10.915Z,57.96
2023-06-19T19:23:42.524Z,57.47
2023-06-19T19:28:08.695Z,57.26
2023-06-19T19:32:15.405Z,57.41
2023-06-19T19:36:20.567Z,57.26
2023-06-19T19:39:54.670Z,56.22
2023-06-19T19:57:20.020Z,57.23
2023-06-19T20:00:39.983Z,57.70
2023-06-19T20:01:17.844Z,56.48
2023-06-19T20:12:56.652Z,59.05
2023-06-19T20:16:41.012Z,59.53
2023-06-19T20:31:23.940Z,59.76
2023-06-19T20:38:59.297Z,59.49
2023-06-19T20:51:11.253Z,59.21
2023-06-19T21:04:07.852Z,59.14
2023-06-19T21:20:06.973Z,58.46
2023-06-19T21:23:46.982Z,58.61
2023-06-19T21:27:15.500Z,57.55
2023-06-19T21:31:06.601Z,58.16
2023-06-19T21:35:43.554Z,57.53
2023-06-19T21:43:23.693Z,57.31
2023-06-19T22:03:13.805Z,57.08
2023-06-19T22:52:20.185Z,23.96
2023-06-19T22:55:48.414Z,23.71
2023-06-19T23:04:13.408Z,22.59
2023-06-19T23:07:24.562Z,22.72
2023-06-19T23:10:28.164Z,22.69
2023-06-19T23:13:43.288Z,21.60
2023-06-19T23:16:59.365Z,21.94
2023-06-19T23:20:28.908Z,21.87
2023-06-19T23:36:58.004Z,21.11
2023-06-19T23:44:08.434Z,23.15
2023-06-19T23:50:44.800Z,24.53
2023-06-19T23:53:49.072Z,24.03
2023-06-19T23:57:48.099Z,23.10
